createdAt,value
2022-07-30T00:00:24.833Z,17.96
2022-07-30T00:02:52.504Z,18.06
2022-07-30T00:05:21.606Z,18.01
2022-07-30T00:07:48.298Z,17.98
2022-07-30T00:10:15.058Z,18.00
2022-07-30T00:12:41.682Z,18.04
2022-07-30T00:15:08.806Z,18.03
2022-07-30T00:17:35.479Z,18.00
2022-07-30T00:20:02.949Z,18.02
2022-07-30T00:22:30.761Z,18.01
2022-07-30T00:24:57.630Z,18.02
2022-07-30T00:27:24.125Z,18.05
2022-07-30T00:29:50.602Z,17.96
2022-07-30T00:32:17.361Z,17.93
2022-07-30T00:34:43.818Z,17.87
2022-07-30T00:37:10.281Z,17.82
2022-07-30T00:39:36.940Z,17.83
2022-07-30T00:42:04.479Z,17.84
2022-07-30T00:44:31.394Z,17.88
2022-07-30T00:46:58.412Z,17.82
2022-07-30T00:49:25.583Z,17.81
2022-07-30T00:51:52.470Z,17.87
2022-07-30T00:54:19.418Z,17.80
2022-07-30T00:56:47.979Z,17.82
2022-07-30T00:59:14.537Z,17.73
2022-07-30T01:01:41.241Z,17.72
2022-07-30T01:04:13.528Z,17.76
2022-07-30T01:06:40.386Z,17.66
2022-07-30T01:09:07.751Z,17.64
2022-07-30T01:11:38.657Z,17.62
2022-07-30T01:14:06.707Z,17.53
2022-07-30T01:16:34.961Z,17.56
2022-07-30T01:19:25.228Z,17.54
2022-07-30T01:22:03.637Z,17.45
2022-07-30T01:24:43.437Z,17.43
2022-07-30T01:27:11.373Z,17.35
2022-07-30T01:29:39.472Z,17.40
2022-07-30T01:32:08.541Z,17.39
2022-07-30T01:34:36.303Z,17.36
2022-07-30T01:37:04.451Z,17.27
2022-07-30T01:39:31.926Z,17.29
2022-07-30T01:41:58.975Z,17.33
2022-07-30T01:44:26.916Z,17.28
2022-07-30T01:46:55.208Z,17.35
2022-07-30T01:49:23.177Z,17.28
2022-07-30T01:51:50.853Z,17.35
2022-07-30T01:54:18.379Z,17.34
2022-07-30T01:56:46.293Z,17.25
2022-07-30T01:59:14.524Z,17.26
2022-07-30T02:01:41.067Z,17.18
2022-07-30T02:04:07.611Z,17.16
2022-07-30T02:06:38.428Z,17.20
2022-07-30T02:09:10.898Z,17.23
2022-07-30T02:12:01.125Z,17.23
2022-07-30T02:14:31.123Z,17.18
2022-07-30T02:16:59.139Z,17.21
2022-07-30T02:19:34.578Z,17.15
2022-07-30T02:22:08.734Z,17.11
2022-07-30T02:24:37.523Z,17.07
2022-07-30T02:27:14.196Z,17.15
2022-07-30T02:29:42.212Z,17.20
2022-07-30T02:32:11.806Z,17.18
2022-07-30T02:34:40.465Z,17.16
2022-07-30T02:37:09.138Z,17.12
2022-07-30T02:39:36.437Z,17.02
2022-07-30T02:42:04.567Z,17.07
2022-07-30T02:44:31.358Z,17.08
2022-07-30T02:46:59.185Z,17.09
2022-07-30T02:49:33.561Z,17.15
2022-07-30T02:52:00.617Z,17.16
2022-07-30T02:54:29.973Z,17.19
2022-07-30T02:56:59.693Z,17.09
2022-07-30T02:59:26.785Z,17.13
2022-07-30T03:01:54.123Z,17.15
2022-07-30T03:04:21.143Z,17.09
2022-07-30T03:06:49.490Z,17.15
2022-07-30T03:09:17.995Z,17.13
2022-07-30T03:11:44.984Z,17.09
2022-07-30T03:14:11.545Z,17.11
2022-07-30T03:16:38.738Z,17.05
2022-07-30T03:19:07.639Z,17.07
2022-07-30T03:21:35.824Z,17.03
2022-07-30T03:24:03.745Z,17.06
2022-07-30T03:26:31.287Z,17.12
2022-07-30T03:28:58.117Z,17.17
2022-07-30T03:31:24.782Z,17.08
2022-07-30T03:33:55.583Z,17.05
2022-07-30T03:36:22.646Z,17.10
2022-07-30T03:38:49.926Z,17.03
2022-07-30T03:41:16.832Z,16.96
2022-07-30T03:43:43.596Z,16.95
2022-07-30T03:46:10.840Z,16.90
2022-07-30T03:48:41.054Z,16.84
2022-07-30T03:51:10.310Z,16.92
2022-07-30T03:53:37.165Z,16.84
2022-07-30T03:56:04.887Z,16.84
2022-07-30T03:58:35.824Z,16.86
2022-07-30T04:01:03.086Z,16.86
2022-07-30T04:03:33.263Z,16.93
2022-07-30T04:06:00.656Z,16.94
2022-07-30T04:08:29.905Z,16.97
2022-07-30T04:10:56.904Z,17.03
2022-07-30T04:13:23.450Z,16.95
2022-07-30T04:16:05.852Z,17.02
2022-07-30T04:18:49.383Z,17.09
2022-07-30T04:21:18.323Z,17.18
2022-07-30T04:24:01.869Z,17.22
2022-07-30T04:26:33.403Z,17.17
2022-07-30T04:29:00.664Z,17.18
2022-07-30T04:31:28.260Z,17.21
2022-07-30T04:33:55.244Z,17.11
2022-07-30T04:36:25.503Z,17.20
2022-07-30T04:38:52.040Z,17.26
2022-07-30T04:41:18.665Z,17.19
2022-07-30T04:43:45.209Z,17.30
2022-07-30T04:46:11.844Z,17.34
2022-07-30T04:48:38.705Z,17.36
2022-07-30T04:51:28.613Z,17.35
2022-07-30T04:53:56.333Z,17.49
2022-07-30T04:56:23.389Z,17.49
2022-07-30T04:58:51.008Z,17.43
2022-07-30T05:01:35.916Z,17.41
2022-07-30T05:04:08.703Z,17.40
2022-07-30T05:06:35.744Z,17.36
2022-07-30T05:09:02.803Z,17.34
2022-07-30T05:11:29.510Z,17.36
2022-07-30T05:13:56.157Z,17.30
2022-07-30T05:16:22.864Z,17.32
2022-07-30T05:18:49.436Z,17.30
2022-07-30T05:21:16.465Z,17.33
2022-07-30T05:23:50.542Z,17.27
2022-07-30T05:26:20.983Z,17.22
2022-07-30T05:28:52.036Z,17.23
2022-07-30T05:31:20.257Z,17.29
2022-07-30T05:33:47.985Z,17.32
2022-07-30T05:36:14.619Z,17.37
2022-07-30T05:38:41.223Z,17.39
2022-07-30T05:41:32.361Z,17.33
2022-07-30T05:43:55.962Z,17.33
2022-07-30T05:46:23.661Z,17.18
2022-07-30T05:48:50.404Z,17.13
2022-07-30T05:51:18.813Z,17.09
2022-07-30T05:53:45.500Z,17.12
2022-07-30T05:56:12.056Z,17.20
2022-07-30T05:58:38.660Z,17.15
2022-07-30T06:01:05.473Z,17.10
2022-07-30T06:03:31.976Z,17.16
2022-07-30T06:05:58.476Z,17.16
2022-07-30T06:08:25.090Z,17.14
2022-07-30T06:10:51.548Z,17.12
2022-07-30T06:13:18.049Z,17.18
2022-07-30T06:15:44.916Z,17.19
2022-07-30T06:18:11.465Z,17.23
2022-07-30T06:20:37.967Z,17.28
2022-07-30T06:23:04.700Z,17.33
2022-07-30T06:25:31.373Z,17.29
2022-07-30T06:27:57.888Z,17.34
2022-07-30T06:30:30.355Z,17.51
2022-07-30T06:32:58.037Z,17.54
2022-07-30T06:35:24.542Z,17.52
2022-07-30T06:38:05.865Z,17.50
2022-07-30T06:40:34.554Z,17.43
2022-07-30T06:43:01.265Z,17.42
2022-07-30T06:45:27.907Z,17.38
2022-07-30T06:47:58.582Z,17.34
2022-07-30T06:50:25.937Z,17.39
2022-07-30T06:52:52.621Z,17.42
2022-07-30T06:55:19.319Z,17.48
2022-07-30T06:57:45.884Z,17.56
2022-07-30T07:00:12.852Z,17.56
2022-07-30T07:02:39.507Z,17.62
2022-07-30T07:05:07.473Z,17.53
2022-07-30T07:07:42.968Z,17.54
2022-07-30T07:10:13.302Z,17.64
2022-07-30T07:12:40.109Z,17.61
2022-07-30T07:15:07.353Z,17.76
2022-07-30T07:17:33.977Z,17.84
2022-07-30T07:20:02.560Z,17.81
2022-07-30T07:22:29.683Z,17.89
2022-07-30T07:24:56.523Z,17.97
2022-07-30T07:27:23.062Z,17.90
2022-07-30T07:30:05.038Z,17.91
2022-07-30T07:32:33.335Z,17.86
2022-07-30T07:35:03.038Z,18.05
2022-07-30T07:37:29.620Z,18.12
2022-07-30T07:39:56.325Z,18.28
2022-07-30T07:42:23.085Z,18.60
2022-07-30T07:44:49.599Z,18.67
2022-07-30T07:47:16.509Z,18.67
2022-07-30T07:49:43.050Z,18.86
2022-07-30T07:52:09.585Z,18.97
2022-07-30T07:54:36.185Z,19.08
2022-07-30T07:57:04.464Z,19.25
2022-07-30T07:59:35.877Z,19.34
2022-07-30T08:02:06.408Z,19.61
2022-07-30T08:04:34.552Z,20.11
2022-07-30T08:07:01.493Z,20.32
2022-07-30T08:09:43.470Z,20.45
2022-07-30T08:12:11.189Z,20.70
2022-07-30T08:14:38.261Z,20.74
2022-07-30T08:17:05.253Z,20.62
2022-07-30T08:19:32.260Z,20.53
2022-07-30T08:21:59.909Z,20.61
2022-07-30T08:24:27.019Z,20.67
2022-07-30T08:26:53.827Z,20.79
2022-07-30T08:29:20.581Z,20.74
2022-07-30T08:31:47.132Z,21.05
2022-07-30T08:34:13.885Z,21.34
2022-07-30T08:36:41.157Z,21.53
2022-07-30T08:39:08.611Z,21.41
2022-07-30T08:41:36.518Z,21.27
2022-07-30T08:44:06.831Z,21.03
2022-07-30T08:46:36.629Z,20.89
2022-07-30T08:49:07.732Z,20.66
2022-07-30T08:51:36.813Z,20.93
2022-07-30T08:54:04.862Z,21.15
2022-07-30T08:56:32.599Z,21.21
2022-07-30T08:59:00.383Z,21.48
2022-07-30T09:01:27.072Z,21.64
2022-07-30T09:03:54.993Z,21.73
2022-07-30T09:06:21.801Z,22.05
2022-07-30T09:08:48.544Z,22.18
2022-07-30T09:11:15.823Z,22.24
2022-07-30T09:13:44.575Z,22.45
2022-07-30T09:16:26.882Z,22.75
2022-07-30T09:18:54.588Z,22.95
2022-07-30T09:21:26.048Z,22.63
2022-07-30T09:24:08.175Z,22.51
2022-07-30T09:27:03.577Z,22.49
2022-07-30T09:29:31.683Z,22.81
2022-07-30T09:32:04.978Z,23.51
2022-07-30T09:34:34.354Z,23.63
2022-07-30T09:37:17.057Z,23.27
2022-07-30T09:39:59.542Z,22.87
2022-07-30T09:42:28.200Z,22.77
2022-07-30T09:45:09.196Z,22.51
2022-07-30T09:47:38.211Z,22.52
2022-07-30T09:50:13.087Z,22.40
2022-07-30T09:52:48.942Z,22.32
2022-07-30T09:55:30.023Z,22.25
2022-07-30T09:58:04.802Z,22.22
2022-07-30T10:00:33.492Z,22.37
2022-07-30T10:03:00.710Z,22.26
2022-07-30T10:05:39.405Z,22.18
2022-07-30T10:08:09.295Z,22.06
2022-07-30T10:10:47.106Z,22.05
2022-07-30T10:13:20.740Z,22.05
2022-07-30T10:15:49.699Z,21.92
2022-07-30T10:18:16.509Z,21.98
2022-07-30T10:20:45.002Z,21.96
2022-07-30T10:23:15.922Z,21.92
2022-07-30T10:25:50.155Z,21.89
2022-07-30T10:28:22.502Z,21.90
2022-07-30T10:30:51.753Z,21.81
2022-07-30T10:33:34.972Z,21.72
2022-07-30T10:36:04.499Z,21.72
2022-07-30T10:38:39.401Z,21.70
2022-07-30T10:41:42.783Z,21.60
2022-07-30T10:44:43.929Z,21.45
2022-07-30T10:47:14.198Z,21.38
2022-07-30T10:49:43.016Z,21.38
2022-07-30T10:52:10.395Z,21.38
2022-07-30T10:54:40.226Z,21.43
2022-07-30T10:57:22.703Z,21.55
2022-07-30T11:00:01.158Z,21.47
2022-07-30T11:02:35.828Z,21.53
2022-07-30T11:05:17.939Z,21.64
2022-07-30T11:07:47.264Z,21.65
2022-07-30T11:10:39.667Z,21.53
2022-07-30T11:13:07.697Z,21.44
2022-07-30T11:15:54.654Z,21.50
2022-07-30T11:18:25.025Z,21.42
2022-07-30T11:21:20.781Z,21.28
2022-07-30T11:23:49.431Z,21.19
2022-07-30T11:26:38.527Z,21.09
2022-07-30T11:29:08.838Z,20.90
2022-07-30T11:31:58.536Z,20.66
2022-07-30T11:34:26.043Z,20.46
2022-07-30T11:37:21.663Z,20.21
2022-07-30T11:39:58.145Z,19.99
2022-07-30T11:42:32.856Z,19.73
2022-07-30T11:45:18.177Z,19.47
2022-07-30T11:47:49.404Z,19.34
2022-07-30T11:50:21.329Z,19.23
2022-07-30T11:52:55.344Z,19.13
2022-07-30T11:55:30.518Z,18.98
2022-07-30T11:57:57.617Z,18.96
2022-07-30T12:00:24.732Z,18.84
2022-07-30T12:02:51.799Z,18.74
2022-07-30T12:05:26.194Z,18.61
2022-07-30T12:07:59.248Z,18.63
2022-07-30T12:10:26.952Z,18.59
2022-07-30T12:13:08.002Z,18.61
2022-07-30T12:15:37.022Z,18.61
2022-07-30T12:18:25.825Z,18.56
2022-07-30T12:20:55.267Z,18.60
2022-07-30T12:23:24.746Z,18.62
2022-07-30T12:25:51.769Z,18.67
2022-07-30T12:28:22.933Z,18.70
2022-07-30T12:30:50.045Z,18.78
2022-07-30T12:33:16.868Z,18.75
2022-07-30T12:35:47.957Z,18.83
2022-07-30T12:38:15.488Z,18.84
2022-07-30T12:41:03.041Z,18.92
2022-07-30T12:43:48.077Z,18.97
2022-07-30T12:46:22.382Z,18.95
2022-07-30T12:49:21.682Z,18.94
2022-07-30T12:52:00.201Z,18.91
2022-07-30T12:54:27.728Z,18.93
2022-07-30T12:57:06.932Z,18.87
2022-07-30T12:59:35.362Z,18.74
2022-07-30T13:02:03.970Z,18.55
2022-07-30T13:04:33.435Z,18.49
2022-07-30T13:07:06.930Z,18.41
2022-07-30T13:09:33.683Z,18.37
2022-07-30T13:12:00.437Z,18.31
2022-07-30T13:14:27.169Z,18.33
2022-07-30T13:16:56.311Z,18.32
2022-07-30T13:19:23.806Z,18.22
2022-07-30T13:21:50.292Z,18.27
2022-07-30T13:24:18.470Z,18.31
2022-07-30T13:26:45.587Z,18.38
2022-07-30T13:29:13.678Z,18.32
2022-07-30T13:31:43.031Z,18.33
2022-07-30T13:34:10.182Z,18.43
2022-07-30T13:36:36.710Z,18.45
2022-07-30T13:39:04.042Z,18.50
2022-07-30T13:41:30.628Z,18.56
2022-07-30T13:43:57.299Z,18.62
2022-07-30T13:46:23.985Z,18.70
2022-07-30T13:48:50.563Z,18.79
2022-07-30T13:51:17.096Z,18.76
2022-07-30T13:53:43.713Z,18.65
2022-07-30T13:56:12.839Z,18.52
2022-07-30T13:58:40.058Z,18.37
2022-07-30T14:01:07.466Z,18.20
2022-07-30T14:03:35.241Z,18.03
2022-07-30T14:06:10.904Z,17.88
2022-07-30T14:08:38.851Z,17.75
2022-07-30T14:11:05.431Z,17.75
2022-07-30T14:13:32.038Z,17.70
2022-07-30T14:15:58.815Z,17.64
2022-07-30T14:18:25.487Z,17.65
2022-07-30T14:20:53.699Z,17.56
2022-07-30T14:23:20.712Z,17.52
2022-07-30T14:25:47.474Z,17.46
2022-07-30T14:28:15.450Z,17.40
2022-07-30T14:30:42.588Z,17.41
2022-07-30T14:33:09.309Z,17.35
2022-07-30T14:35:35.858Z,17.40
2022-07-30T14:38:04.203Z,17.36
2022-07-30T14:40:30.891Z,17.38
2022-07-30T14:42:57.973Z,17.39
2022-07-30T14:45:25.637Z,17.40
2022-07-30T14:47:52.516Z,17.39
2022-07-30T14:50:19.147Z,17.38
2022-07-30T14:52:47.552Z,17.42
2022-07-30T14:55:14.234Z,17.45
2022-07-30T14:57:40.771Z,17.46
2022-07-30T15:00:10.782Z,17.50
2022-07-30T15:02:37.676Z,17.57
2022-07-30T15:05:04.521Z,17.62
2022-07-30T15:07:31.147Z,17.66
2022-07-30T15:10:01.395Z,17.58
2022-07-30T15:12:28.058Z,17.63
2022-07-30T15:14:54.922Z,17.71
2022-07-30T15:17:22.123Z,17.75
2022-07-30T15:19:51.532Z,17.86
2022-07-30T15:22:21.611Z,17.82
2022-07-30T15:24:48.774Z,17.92
2022-07-30T15:27:15.331Z,17.93
2022-07-30T15:29:41.903Z,17.87
2022-07-30T15:32:08.445Z,17.87
2022-07-30T15:34:35.109Z,17.93
2022-07-30T15:37:02.856Z,17.95
2022-07-30T15:39:32.192Z,17.99
2022-07-30T15:41:59.296Z,18.03
2022-07-30T15:44:26.082Z,18.09
2022-07-30T15:46:52.724Z,18.07
2022-07-30T15:49:19.339Z,17.99
2022-07-30T15:51:48.884Z,18.03
2022-07-30T15:54:16.632Z,18.04
2022-07-30T15:56:49.919Z,18.05
2022-07-30T15:59:16.400Z,18.08
2022-07-30T16:01:44.038Z,18.14
2022-07-30T16:04:18.984Z,18.19
2022-07-30T16:06:46.440Z,18.29
2022-07-30T16:09:13.798Z,18.37
2022-07-30T16:11:41.688Z,18.39
2022-07-30T16:14:09.118Z,18.43
2022-07-30T16:16:35.749Z,18.44
2022-07-30T16:19:02.795Z,18.51
2022-07-30T16:21:29.332Z,18.52
2022-07-30T16:23:56.769Z,18.56
2022-07-30T16:26:23.428Z,18.56
2022-07-30T16:28:50.301Z,18.54
2022-07-30T16:31:17.534Z,18.56
2022-07-30T16:33:44.022Z,18.57
2022-07-30T16:36:11.149Z,18.56
2022-07-30T16:38:37.760Z,18.55
2022-07-30T16:41:04.579Z,18.58
2022-07-30T16:43:31.992Z,18.60
2022-07-30T16:45:59.627Z,18.67
2022-07-30T16:48:26.342Z,18.64
2022-07-30T16:50:53.652Z,18.64
2022-07-30T16:53:20.632Z,18.70
2022-07-30T16:55:47.288Z,18.64
2022-07-30T16:58:14.086Z,18.68
2022-07-30T17:00:41.075Z,18.66
2022-07-30T17:03:07.786Z,18.70
2022-07-30T17:05:34.394Z,18.66
2022-07-30T17:08:01.235Z,18.60
2022-07-30T17:10:27.976Z,18.64
2022-07-30T17:12:57.160Z,18.54
2022-07-30T17:15:32.185Z,18.49
2022-07-30T17:18:00.521Z,18.46
2022-07-30T17:20:27.371Z,18.41
2022-07-30T17:22:57.975Z,18.28
2022-07-30T17:25:28.081Z,18.26
2022-07-30T17:27:56.232Z,18.21
2022-07-30T17:30:23.605Z,18.14
2022-07-30T17:32:50.477Z,18.10
2022-07-30T17:35:17.171Z,17.91
2022-07-30T17:37:43.988Z,17.71
2022-07-30T17:40:30.247Z,17.55
2022-07-30T17:43:05.976Z,17.44
2022-07-30T17:45:34.430Z,17.31
2022-07-30T17:48:04.375Z,17.21
2022-07-30T17:50:32.495Z,17.07
2022-07-30T17:52:59.598Z,16.98
2022-07-30T17:55:28.117Z,16.90
2022-07-30T17:57:54.783Z,16.82
2022-07-30T18:00:21.491Z,16.75
2022-07-30T18:02:48.433Z,16.72
2022-07-30T18:05:15.698Z,16.58
2022-07-30T18:07:43.689Z,16.59
2022-07-30T18:10:11.228Z,16.55
2022-07-30T18:12:38.311Z,16.43
2022-07-30T18:15:06.341Z,16.39
2022-07-30T18:17:32.971Z,16.38
2022-07-30T18:19:59.647Z,16.35
2022-07-30T18:22:29.460Z,16.30
2022-07-30T18:24:56.868Z,16.34
2022-07-30T18:27:23.616Z,16.24
2022-07-30T18:29:50.170Z,16.26
2022-07-30T18:32:16.713Z,16.27
2022-07-30T18:34:43.359Z,16.34
2022-07-30T18:37:09.927Z,16.30
2022-07-30T18:39:36.443Z,16.30
2022-07-30T18:42:04.428Z,16.28
2022-07-30T18:44:31.353Z,16.18
2022-07-30T18:46:57.827Z,16.18
2022-07-30T18:49:36.698Z,16.23
2022-07-30T18:52:04.705Z,16.27
2022-07-30T18:54:31.655Z,16.27
2022-07-30T18:56:58.145Z,16.27
2022-07-30T18:59:24.727Z,16.20
2022-07-30T19:01:51.247Z,16.19
2022-07-30T19:04:17.755Z,16.14
2022-07-30T19:06:44.592Z,16.17
2022-07-30T19:09:17.204Z,16.17
2022-07-30T19:11:44.624Z,16.19
2022-07-30T19:14:12.910Z,16.10
2022-07-30T19:16:39.861Z,16.03
2022-07-30T19:19:06.340Z,15.99
2022-07-30T19:21:33.104Z,15.94
2022-07-30T19:23:59.788Z,15.79
2022-07-30T19:26:26.423Z,15.78
2022-07-30T19:28:53.062Z,15.71
2022-07-30T19:31:19.745Z,15.69
2022-07-30T19:33:46.240Z,15.69
2022-07-30T19:36:15.104Z,15.66
2022-07-30T19:38:44.239Z,15.66
2022-07-30T19:41:12.220Z,15.64
2022-07-30T19:43:40.743Z,15.63
2022-07-30T19:46:07.356Z,15.66
2022-07-30T19:48:37.194Z,15.67
2022-07-30T19:51:04.643Z,15.63
2022-07-30T19:53:34.366Z,15.65
2022-07-30T19:56:04.536Z,15.63
2022-07-30T19:58:37.288Z,15.62
2022-07-30T20:01:08.297Z,15.63
2022-07-30T20:03:35.755Z,15.69
2022-07-30T20:06:07.282Z,15.73
2022-07-30T20:08:36.807Z,15.64
2022-07-30T20:11:07.317Z,15.60
2022-07-30T20:13:45.122Z,15.59
2022-07-30T20:16:16.153Z,15.62
2022-07-30T20:18:44.448Z,15.60
2022-07-30T20:21:15.482Z,15.58
2022-07-30T20:23:43.276Z,15.51
2022-07-30T20:26:13.748Z,15.58
2022-07-30T20:28:41.906Z,15.57
2022-07-30T20:31:08.592Z,15.56
2022-07-30T20:33:37.974Z,15.57
2022-07-30T20:36:06.127Z,15.56
2022-07-30T20:38:38.649Z,15.61
2022-07-30T20:41:10.090Z,15.55
2022-07-30T20:43:46.129Z,15.50
2022-07-30T20:46:20.132Z,15.48
2022-07-30T20:48:46.884Z,15.45
2022-07-30T20:51:13.650Z,15.45
2022-07-30T20:53:41.993Z,15.43
2022-07-30T20:56:12.326Z,15.34
2022-07-30T20:58:40.258Z,15.29
2022-07-30T21:01:07.701Z,15.26
2022-07-30T21:03:34.234Z,15.24
2022-07-30T21:06:02.725Z,15.23
2022-07-30T21:08:29.425Z,15.26
2022-07-30T21:10:57.511Z,15.19
2022-07-30T21:13:27.062Z,15.09
2022-07-30T21:16:02.211Z,15.12
2022-07-30T21:18:30.050Z,15.04
2022-07-30T21:20:57.319Z,15.00
2022-07-30T21:23:23.923Z,14.91
2022-07-30T21:26:00.875Z,14.87
2022-07-30T21:28:30.095Z,14.84
2022-07-30T21:31:02.829Z,14.88
2022-07-30T21:33:31.040Z,14.85
2022-07-30T21:35:58.264Z,14.84
2022-07-30T21:38:26.623Z,14.90
2022-07-30T21:40:53.686Z,14.85
2022-07-30T21:43:29.440Z,14.81
2022-07-30T21:45:56.459Z,14.82
2022-07-30T21:48:24.161Z,14.84
2022-07-30T21:50:50.628Z,14.81
2022-07-30T21:53:17.273Z,14.85
2022-07-30T21:55:59.647Z,14.89
2022-07-30T21:58:26.680Z,14.89
2022-07-30T22:00:54.985Z,14.85
2022-07-30T22:04:03.144Z,14.91
2022-07-30T22:08:55.258Z,14.90
2022-07-30T22:11:22.319Z,14.91
2022-07-30T22:13:51.390Z,14.94
2022-07-30T22:16:21.747Z,14.97
2022-07-30T22:18:48.761Z,15.01
2022-07-30T22:21:15.467Z,15.01
2022-07-30T22:23:58.151Z,15.02
2022-07-30T22:26:26.784Z,15.03
2022-07-30T22:28:54.415Z,15.04
2022-07-30T22:31:21.112Z,15.08
2022-07-30T22:33:47.764Z,15.07
2022-07-30T22:36:17.799Z,15.08
2022-07-30T22:38:58.617Z,15.01
2022-07-30T22:41:25.969Z,15.01
2022-07-30T22:43:55.789Z,15.06
2022-07-30T22:46:30.924Z,14.99
2022-07-30T22:48:59.344Z,15.09
2022-07-30T22:54:13.413Z,15.03
2022-07-30T22:56:40.375Z,15.02
2022-07-30T22:59:06.843Z,15.06
2022-07-30T23:01:33.587Z,15.04
2022-07-30T23:04:01.469Z,15.06
2022-07-30T23:06:28.182Z,15.05
2022-07-30T23:08:56.744Z,15.09
2022-07-30T23:11:23.289Z,15.06
2022-07-30T23:12:28.283Z,14.89
2022-07-30T23:12:34.690Z,15.06
2022-07-30T23:13:53.611Z,15.07
2022-07-30T23:16:20.373Z,15.05
2022-07-30T23:18:46.967Z,15.09
2022-07-30T23:21:14.102Z,15.11
2022-07-30T23:23:40.772Z,15.11
2022-07-30T23:26:08.461Z,15.04
2022-07-30T23:28:35.791Z,15.07
2022-07-30T23:31:03.922Z,15.04
2022-07-30T23:33:31.239Z,15.02
2022-07-30T23:36:00.081Z,15.10
2022-07-30T23:38:27.076Z,15.04
2022-07-30T23:40:54.053Z,15.09
2022-07-30T23:43:20.609Z,15.07
2022-07-30T23:45:47.279Z,15.06
2022-07-30T23:48:14.957Z,15.03
2022-07-30T23:50:41.605Z,15.01
2022-07-30T23:53:08.273Z,15.06
2022-07-30T23:55:35.967Z,15.07
2022-07-30T23:58:03.855Z,15.08
